sensor_id;sensor_type;location;lat;lon;timestamp;P1;durP1;ratioP1;P2;durP2;ratioP2
2416;SDS011;1219;48.736;9.330;2022-08-11T00:01:35;2.93;;;2.73;;
2416;SDS011;1219;48.736;9.330;2022-08-11T00:04:02;4.60;;;3.07;;
2416;SDS011;1219;48.736;9.330;2022-08-11T00:06:30;3.00;;;2.80;;
2416;SDS011;1219;48.736;9.330;2022-08-11T00:08:57;2.93;;;2.73;;
2416;SDS011;1219;48.736;9.330;2022-08-11T00:11:30;3.60;;;2.63;;
2416;SDS011;1219;48.736;9.330;2022-08-11T00:13:57;2.97;;;2.73;;
2416;SDS011;1219;48.736;9.330;2022-08-11T00:16:24;2.73;;;2.53;;
2416;SDS011;1219;48.736;9.330;2022-08-11T00:18:52;3.40;;;3.10;;
2416;SDS011;1219;48.736;9.330;2022-08-11T00:21:19;2.97;;;2.77;;
2416;SDS011;1219;48.736;9.330;2022-08-11T00:24:06;3.57;;;3.27;;
2416;SDS011;1219;48.736;9.330;2022-08-11T00:26:32;2.60;;;2.40;;
2416;SDS011;1219;48.736;9.330;2022-08-11T00:29:07;2.73;;;2.53;;
2416;SDS011;1219;48.736;9.330;2022-08-11T00:31:33;3.13;;;2.83;;
2416;SDS011;1219;48.736;9.330;2022-08-11T00:34:00;3.40;;;2.90;;
2416;SDS011;1219;48.736;9.330;2022-08-11T00:36:28;2.90;;;2.70;;
2416;SDS011;1219;48.736;9.330;2022-08-11T00:38:56;2.63;;;2.50;;
2416;SDS011;1219;48.736;9.330;2022-08-11T00:44:21;3.20;;;2.50;;
2416;SDS011;1219;48.736;9.330;2022-08-11T00:49:29;2.40;;;2.20;;
2416;SDS011;1219;48.736;9.330;2022-08-11T00:57:34;4.30;;;3.03;;
2416;SDS011;1219;48.736;9.330;2022-08-11T01:02:46;2.80;;;2.60;;
2416;SDS011;1219;48.736;9.330;2022-08-11T01:05:15;3.00;;;2.80;;
2416;SDS011;1219;48.736;9.330;2022-08-11T01:08:08;3.50;;;2.80;;
2416;SDS011;1219;48.736;9.330;2022-08-11T01:10:50;3.10;;;2.80;;
2416;SDS011;1219;48.736;9.330;2022-08-11T01:16:23;3.13;;;2.67;;
2416;SDS011;1219;48.736;9.330;2022-08-11T01:27:14;3.27;;;3.07;;
2416;SDS011;1219;48.736;9.330;2022-08-11T01:32:58;3.47;;;3.17;;
2416;SDS011;1219;48.736;9.330;2022-08-11T01:38:27;3.30;;;3.10;;
2416;SDS011;1219;48.736;9.330;2022-08-11T01:44:16;3.23;;;3.03;;
2416;SDS011;1219;48.736;9.330;2022-08-11T01:50:15;3.33;;;3.13;;
2416;SDS011;1219;48.736;9.330;2022-08-11T01:55:25;3.00;;;2.80;;
2416;SDS011;1219;48.736;9.330;2022-08-11T01:57:55;3.30;;;3.10;;
2416;SDS011;1219;48.736;9.330;2022-08-11T02:00:27;6.00;;;3.60;;
2416;SDS011;1219;48.736;9.330;2022-08-11T02:03:00;3.20;;;2.97;;
2416;SDS011;1219;48.736;9.330;2022-08-11T02:11:34;4.30;;;3.97;;
2416;SDS011;1219;48.736;9.330;2022-08-11T02:14:16;3.90;;;3.60;;
2416;SDS011;1219;48.736;9.330;2022-08-11T02:19:38;3.13;;;2.93;;
2416;SDS011;1219;48.736;9.330;2022-08-11T02:22:30;3.30;;;3.00;;
2416;SDS011;1219;48.736;9.330;2022-08-11T02:27:47;3.63;;;3.43;;
2416;SDS011;1219;48.736;9.330;2022-08-11T02:30:15;5.63;;;3.50;;
2416;SDS011;1219;48.736;9.330;2022-08-11T02:32:54;4.00;;;3.70;;
2416;SDS011;1219;48.736;9.330;2022-08-11T02:35:58;4.27;;;3.40;;
2416;SDS011;1219;48.736;9.330;2022-08-11T02:41:13;5.13;;;3.67;;
2416;SDS011;1219;48.736;9.330;2022-08-11T02:46:30;3.63;;;3.43;;
2416;SDS011;1219;48.736;9.330;2022-08-11T02:52:23;4.07;;;3.67;;
2416;SDS011;1219;48.736;9.330;2022-08-11T02:59:55;3.83;;;3.60;;
2416;SDS011;1219;48.736;9.330;2022-08-11T03:05:00;3.70;;;3.50;;
2416;SDS011;1219;48.736;9.330;2022-08-11T03:07:38;4.40;;;4.07;;
2416;SDS011;1219;48.736;9.330;2022-08-11T03:10:17;4.80;;;4.30;;
2416;SDS011;1219;48.736;9.330;2022-08-11T03:12:50;4.57;;;4.17;;
2416;SDS011;1219;48.736;9.330;2022-08-11T03:18:37;4.50;;;4.20;;
2416;SDS011;1219;48.736;9.330;2022-08-11T03:23:40;4.23;;;3.93;;
2416;SDS011;1219;48.736;9.330;2022-08-11T03:26:23;4.57;;;4.27;;
2416;SDS011;1219;48.736;9.330;2022-08-11T03:28:54;4.27;;;3.97;;
2416;SDS011;1219;48.736;9.330;2022-08-11T03:33:53;4.03;;;3.80;;
2416;SDS011;1219;48.736;9.330;2022-08-11T03:36:39;4.37;;;4.03;;
2416;SDS011;1219;48.736;9.330;2022-08-11T03:39:19;4.13;;;3.83;;
2416;SDS011;1219;48.736;9.330;2022-08-11T03:44:44;4.83;;;4.53;;
2416;SDS011;1219;48.736;9.330;2022-08-11T03:47:23;5.00;;;4.70;;
2416;SDS011;1219;48.736;9.330;2022-08-11T03:55:06;5.50;;;5.10;;
2416;SDS011;1219;48.736;9.330;2022-08-11T03:57:44;4.90;;;4.50;;
2416;SDS011;1219;48.736;9.330;2022-08-11T04:00:15;5.30;;;4.90;;
2416;SDS011;1219;48.736;9.330;2022-08-11T04:05:43;4.93;;;4.50;;
2416;SDS011;1219;48.736;9.330;2022-08-11T04:11:07;5.40;;;4.70;;
2416;SDS011;1219;48.736;9.330;2022-08-11T04:27:00;7.40;;;5.17;;
2416;SDS011;1219;48.736;9.330;2022-08-11T04:30:14;5.17;;;4.77;;
2416;SDS011;1219;48.736;9.330;2022-08-11T04:40:26;4.73;;;4.37;;
2416;SDS011;1219;48.736;9.330;2022-08-11T04:48:18;5.00;;;4.63;;
2416;SDS011;1219;48.736;9.330;2022-08-11T04:51:58;12.53;;;5.47;;
2416;SDS011;1219;48.736;9.330;2022-08-11T04:57:11;5.63;;;5.13;;
2416;SDS011;1219;48.736;9.330;2022-08-11T05:10:47;5.20;;;4.80;;
2416;SDS011;1219;48.736;9.330;2022-08-11T05:13:26;5.00;;;4.70;;
2416;SDS011;1219;48.736;9.330;2022-08-11T05:16:12;5.60;;;5.20;;
2416;SDS011;1219;48.736;9.330;2022-08-11T05:18:57;7.90;;;5.20;;
2416;SDS011;1219;48.736;9.330;2022-08-11T05:21:45;8.80;;;5.40;;
2416;SDS011;1219;48.736;9.330;2022-08-11T05:24:51;5.53;;;5.00;;
2416;SDS011;1219;48.736;9.330;2022-08-11T05:27:53;5.30;;;4.87;;
2416;SDS011;1219;48.736;9.330;2022-08-11T05:30:41;5.17;;;4.67;;
2416;SDS011;1219;48.736;9.330;2022-08-11T05:33:34;5.83;;;5.53;;
2416;SDS011;1219;48.736;9.330;2022-08-11T05:36:26;8.63;;;4.90;;
2416;SDS011;1219;48.736;9.330;2022-08-11T05:38:58;11.67;;;6.03;;
2416;SDS011;1219;48.736;9.330;2022-08-11T05:41:44;6.27;;;5.47;;
2416;SDS011;1219;48.736;9.330;2022-08-11T05:44:30;5.40;;;4.90;;
2416;SDS011;1219;48.736;9.330;2022-08-11T05:47:24;5.63;;;5.23;;
2416;SDS011;1219;48.736;9.330;2022-08-11T05:50:10;5.17;;;4.87;;
2416;SDS011;1219;48.736;9.330;2022-08-11T05:52:55;5.17;;;4.77;;
2416;SDS011;1219;48.736;9.330;2022-08-11T05:55:41;5.20;;;4.90;;
2416;SDS011;1219;48.736;9.330;2022-08-11T05:58:30;5.63;;;5.13;;
2416;SDS011;1219;48.736;9.330;2022-08-11T06:00:57;8.90;;;5.87;;
2416;SDS011;1219;48.736;9.330;2022-08-11T06:03:25;5.70;;;5.20;;
2416;SDS011;1219;48.736;9.330;2022-08-11T06:05:52;7.40;;;6.53;;
2416;SDS011;1219;48.736;9.330;2022-08-11T06:08:18;7.70;;;7.00;;
2416;SDS011;1219;48.736;9.330;2022-08-11T06:10:52;12.93;;;10.00;;
2416;SDS011;1219;48.736;9.330;2022-08-11T06:13:24;12.73;;;9.37;;
2416;SDS011;1219;48.736;9.330;2022-08-11T06:15:50;9.37;;;8.53;;
2416;SDS011;1219;48.736;9.330;2022-08-11T06:18:17;8.70;;;8.00;;
2416;SDS011;1219;48.736;9.330;2022-08-11T06:20:50;9.27;;;8.47;;
2416;SDS011;1219;48.736;9.330;2022-08-11T06:23:17;10.70;;;8.13;;
2416;SDS011;1219;48.736;9.330;2022-08-11T06:25:47;8.50;;;7.70;;
2416;SDS011;1219;48.736;9.330;2022-08-11T06:28:13;9.30;;;8.50;;
2416;SDS011;1219;48.736;9.330;2022-08-11T06:30:44;8.60;;;7.90;;
2416;SDS011;1219;48.736;9.330;2022-08-11T06:33:16;8.43;;;7.63;;
2416;SDS011;1219;48.736;9.330;2022-08-11T06:35:51;8.13;;;7.43;;
2416;SDS011;1219;48.736;9.330;2022-08-11T06:38:27;6.90;;;6.30;;
2416;SDS011;1219;48.736;9.330;2022-08-11T06:41:00;6.07;;;5.67;;
2416;SDS011;1219;48.736;9.330;2022-08-11T06:43:50;5.13;;;4.80;;
2416;SDS011;1219;48.736;9.330;2022-08-11T06:46:22;5.10;;;4.70;;
2416;SDS011;1219;48.736;9.330;2022-08-11T06:48:49;6.10;;;5.50;;
2416;SDS011;1219;48.736;9.330;2022-08-11T06:51:18;7.53;;;5.20;;
2416;SDS011;1219;48.736;9.330;2022-08-11T06:53:46;6.10;;;5.50;;
2416;SDS011;1219;48.736;9.330;2022-08-11T06:56:12;5.13;;;4.60;;
2416;SDS011;1219;48.736;9.330;2022-08-11T06:58:58;5.13;;;4.63;;
2416;SDS011;1219;48.736;9.330;2022-08-11T07:01:52;4.67;;;4.37;;
2416;SDS011;1219;48.736;9.330;2022-08-11T07:04:26;4.30;;;4.00;;
2416;SDS011;1219;48.736;9.330;2022-08-11T07:07:00;8.50;;;4.93;;
2416;SDS011;1219;48.736;9.330;2022-08-11T07:12:45;4.80;;;4.03;;
2416;SDS011;1219;48.736;9.330;2022-08-11T07:15:33;4.30;;;4.00;;
2416;SDS011;1219;48.736;9.330;2022-08-11T07:18:06;4.03;;;2.90;;
2416;SDS011;1219;48.736;9.330;2022-08-11T07:20:52;4.53;;;4.23;;
2416;SDS011;1219;48.736;9.330;2022-08-11T07:23:38;3.20;;;3.00;;
2416;SDS011;1219;48.736;9.330;2022-08-11T07:26:24;3.40;;;3.20;;
2416;SDS011;1219;48.736;9.330;2022-08-11T07:29:10;4.73;;;3.70;;
2416;SDS011;1219;48.736;9.330;2022-08-11T07:31:40;4.00;;;3.60;;
2416;SDS011;1219;48.736;9.330;2022-08-11T07:34:27;3.57;;;3.37;;
2416;SDS011;1219;48.736;9.330;2022-08-11T07:36:58;4.07;;;3.80;;
2416;SDS011;1219;48.736;9.330;2022-08-11T07:39:30;4.13;;;3.80;;
2416;SDS011;1219;48.736;9.330;2022-08-11T07:41:58;3.63;;;3.40;;
2416;SDS011;1219;48.736;9.330;2022-08-11T07:44:25;4.17;;;3.87;;
2416;SDS011;1219;48.736;9.330;2022-08-11T07:46:53;7.30;;;3.60;;
2416;SDS011;1219;48.736;9.330;2022-08-11T07:49:38;4.23;;;3.83;;
2416;SDS011;1219;48.736;9.330;2022-08-11T07:52:31;3.60;;;3.17;;
2416;SDS011;1219;48.736;9.330;2022-08-11T07:55:03;3.93;;;3.43;;
2416;SDS011;1219;48.736;9.330;2022-08-11T07:57:30;3.37;;;3.07;;
2416;SDS011;1219;48.736;9.330;2022-08-11T08:00:15;6.50;;;2.57;;
2416;SDS011;1219;48.736;9.330;2022-08-11T08:03:00;3.73;;;3.43;;
2416;SDS011;1219;48.736;9.330;2022-08-11T08:05:46;3.80;;;3.07;;
2416;SDS011;1219;48.736;9.330;2022-08-11T08:08:31;4.20;;;2.70;;
2416;SDS011;1219;48.736;9.330;2022-08-11T08:11:18;3.20;;;3.00;;
2416;SDS011;1219;48.736;9.330;2022-08-11T08:14:04;3.60;;;3.10;;
2416;SDS011;1219;48.736;9.330;2022-08-11T08:16:49;3.50;;;3.20;;
2416;SDS011;1219;48.736;9.330;2022-08-11T08:19:35;3.10;;;2.90;;
2416;SDS011;1219;48.736;9.330;2022-08-11T08:22:01;3.97;;;3.57;;
2416;SDS011;1219;48.736;9.330;2022-08-11T08:24:27;3.73;;;3.53;;
2416;SDS011;1219;48.736;9.330;2022-08-11T08:26:54;3.50;;;2.93;;
2416;SDS011;1219;48.736;9.330;2022-08-11T08:29:27;4.93;;;2.80;;
2416;SDS011;1219;48.736;9.330;2022-08-11T08:32:13;4.83;;;2.80;;
2416;SDS011;1219;48.736;9.330;2022-08-11T08:34:40;3.13;;;2.90;;
2416;SDS011;1219;48.736;9.330;2022-08-11T08:37:06;3.30;;;3.10;;
2416;SDS011;1219;48.736;9.330;2022-08-11T08:39:32;4.20;;;3.27;;
2416;SDS011;1219;48.736;9.330;2022-08-11T08:42:01;4.33;;;3.03;;
2416;SDS011;1219;48.736;9.330;2022-08-11T08:44:28;2.80;;;2.60;;
2416;SDS011;1219;48.736;9.330;2022-08-11T08:46:57;2.93;;;2.70;;
2416;SDS011;1219;48.736;9.330;2022-08-11T08:49:34;5.63;;;3.10;;
2416;SDS011;1219;48.736;9.330;2022-08-11T08:52:02;3.47;;;3.00;;
2416;SDS011;1219;48.736;9.330;2022-08-11T08:54:31;6.13;;;2.73;;
2416;SDS011;1219;48.736;9.330;2022-08-11T08:56:58;2.90;;;2.60;;
2416;SDS011;1219;48.736;9.330;2022-08-11T08:59:29;3.07;;;2.87;;
2416;SDS011;1219;48.736;9.330;2022-08-11T09:01:59;2.80;;;2.60;;
2416;SDS011;1219;48.736;9.330;2022-08-11T09:04:26;2.73;;;2.53;;
2416;SDS011;1219;48.736;9.330;2022-08-11T09:06:53;3.00;;;2.80;;
2416;SDS011;1219;48.736;9.330;2022-08-11T09:09:20;3.13;;;2.87;;
2416;SDS011;1219;48.736;9.330;2022-08-11T09:11:47;6.00;;;3.50;;
2416;SDS011;1219;48.736;9.330;2022-08-11T09:14:26;5.73;;;2.90;;
2416;SDS011;1219;48.736;9.330;2022-08-11T09:17:11;2.97;;;2.67;;
2416;SDS011;1219;48.736;9.330;2022-08-11T09:19:37;3.73;;;3.40;;
2416;SDS011;1219;48.736;9.330;2022-08-11T09:22:04;2.70;;;2.50;;
2416;SDS011;1219;48.736;9.330;2022-08-11T09:24:49;2.63;;;2.40;;
2416;SDS011;1219;48.736;9.330;2022-08-11T09:27:34;2.40;;;2.30;;
2416;SDS011;1219;48.736;9.330;2022-08-11T09:30:00;2.37;;;2.17;;
2416;SDS011;1219;48.736;9.330;2022-08-11T09:32:26;3.07;;;2.87;;
2416;SDS011;1219;48.736;9.330;2022-08-11T09:34:55;2.50;;;2.40;;
2416;SDS011;1219;48.736;9.330;2022-08-11T09:37:22;3.17;;;2.97;;
2416;SDS011;1219;48.736;9.330;2022-08-11T09:40:07;3.30;;;2.53;;
2416;SDS011;1219;48.736;9.330;2022-08-11T09:42:52;2.40;;;2.30;;
2416;SDS011;1219;48.736;9.330;2022-08-11T09:45:37;2.20;;;2.10;;
2416;SDS011;1219;48.736;9.330;2022-08-11T09:48:04;4.47;;;2.30;;
2416;SDS011;1219;48.736;9.330;2022-08-11T09:50:32;2.90;;;2.07;;
2416;SDS011;1219;48.736;9.330;2022-08-11T09:52:58;2.83;;;2.53;;
2416;SDS011;1219;48.736;9.330;2022-08-11T09:55:27;2.33;;;2.13;;
2416;SDS011;1219;48.736;9.330;2022-08-11T09:57:53;2.80;;;2.60;;
2416;SDS011;1219;48.736;9.330;2022-08-11T10:00:38;2.07;;;1.87;;
2416;SDS011;1219;48.736;9.330;2022-08-11T10:03:17;2.80;;;2.30;;
2416;SDS011;1219;48.736;9.330;2022-08-11T10:05:44;2.90;;;2.70;;
2416;SDS011;1219;48.736;9.330;2022-08-11T10:08:30;2.50;;;2.30;;
2416;SDS011;1219;48.736;9.330;2022-08-11T10:10:59;2.90;;;2.70;;
2416;SDS011;1219;48.736;9.330;2022-08-11T10:13:32;2.80;;;2.60;;
2416;SDS011;1219;48.736;9.330;2022-08-11T10:16:18;2.23;;;2.13;;
2416;SDS011;1219;48.736;9.330;2022-08-11T10:18:46;2.30;;;2.10;;
2416;SDS011;1219;48.736;9.330;2022-08-11T10:21:38;2.30;;;2.10;;
2416;SDS011;1219;48.736;9.330;2022-08-11T10:24:02;3.10;;;2.40;;
2416;SDS011;1219;48.736;9.330;2022-08-11T10:26:48;3.70;;;2.30;;
2416;SDS011;1219;48.736;9.330;2022-08-11T10:32:08;6.17;;;2.20;;
2416;SDS011;1219;48.736;9.330;2022-08-11T10:34:54;2.10;;;2.00;;
2416;SDS011;1219;48.736;9.330;2022-08-11T10:37:21;3.50;;;2.43;;
2416;SDS011;1219;48.736;9.330;2022-08-11T10:39:48;3.60;;;2.20;;
2416;SDS011;1219;48.736;9.330;2022-08-11T10:42:14;3.10;;;2.27;;
2416;SDS011;1219;48.736;9.330;2022-08-11T10:44:59;3.00;;;2.07;;
2416;SDS011;1219;48.736;9.330;2022-08-11T10:47:26;2.10;;;2.00;;
2416;SDS011;1219;48.736;9.330;2022-08-11T10:49:58;2.97;;;2.10;;
2416;SDS011;1219;48.736;9.330;2022-08-11T10:52:44;2.30;;;2.10;;
2416;SDS011;1219;48.736;9.330;2022-08-11T10:55:30;2.00;;;1.90;;
2416;SDS011;1219;48.736;9.330;2022-08-11T10:58:15;1.97;;;1.87;;
2416;SDS011;1219;48.736;9.330;2022-08-11T11:01:00;2.50;;;2.23;;
2416;SDS011;1219;48.736;9.330;2022-08-11T11:03:27;4.57;;;1.90;;
2416;SDS011;1219;48.736;9.330;2022-08-11T11:05:54;1.70;;;1.57;;
2416;SDS011;1219;48.736;9.330;2022-08-11T11:08:24;2.20;;;1.90;;
2416;SDS011;1219;48.736;9.330;2022-08-11T11:11:09;4.53;;;1.73;;
2416;SDS011;1219;48.736;9.330;2022-08-11T11:13:37;2.00;;;1.80;;
2416;SDS011;1219;48.736;9.330;2022-08-11T11:16:22;1.77;;;1.67;;
2416;SDS011;1219;48.736;9.330;2022-08-11T11:19:07;4.22;;;1.67;;
2416;SDS011;1219;48.736;9.330;2022-08-11T11:21:34;2.63;;;1.60;;
2416;SDS011;1219;48.736;9.330;2022-08-11T11:26:49;1.83;;;1.70;;
2416;SDS011;1219;48.736;9.330;2022-08-11T11:34:40;1.80;;;1.70;;
2416;SDS011;1219;48.736;9.330;2022-08-11T11:37:07;2.95;;;1.48;;
2416;SDS011;1219;48.736;9.330;2022-08-11T11:39:35;1.88;;;1.33;;
2416;SDS011;1219;48.736;9.330;2022-08-11T11:42:03;2.40;;;1.60;;
2416;SDS011;1219;48.736;9.330;2022-08-11T11:44:29;2.65;;;1.45;;
2416;SDS011;1219;48.736;9.330;2022-08-11T11:46:57;1.90;;;1.30;;
2416;SDS011;1219;48.736;9.330;2022-08-11T11:49:24;1.55;;;1.45;;
2416;SDS011;1219;48.736;9.330;2022-08-11T11:51:51;3.40;;;1.52;;
2416;SDS011;1219;48.736;9.330;2022-08-11T11:54:22;1.60;;;1.50;;
2416;SDS011;1219;48.736;9.330;2022-08-11T11:56:49;1.40;;;1.30;;
2416;SDS011;1219;48.736;9.330;2022-08-11T11:59:17;1.70;;;1.60;;
2416;SDS011;1219;48.736;9.330;2022-08-11T12:02:02;2.15;;;1.30;;
2416;SDS011;1219;48.736;9.330;2022-08-11T12:04:29;2.67;;;1.40;;
2416;SDS011;1219;48.736;9.330;2022-08-11T12:06:55;1.48;;;1.38;;
2416;SDS011;1219;48.736;9.330;2022-08-11T12:09:41;1.65;;;1.55;;
2416;SDS011;1219;48.736;9.330;2022-08-11T12:12:07;1.70;;;1.60;;
2416;SDS011;1219;48.736;9.330;2022-08-11T12:14:52;1.40;;;1.30;;
2416;SDS011;1219;48.736;9.330;2022-08-11T12:17:18;3.38;;;1.50;;
2416;SDS011;1219;48.736;9.330;2022-08-11T12:19:45;1.65;;;1.20;;
2416;SDS011;1219;48.736;9.330;2022-08-11T12:22:12;2.28;;;1.30;;
2416;SDS011;1219;48.736;9.330;2022-08-11T12:24:57;1.52;;;1.25;;
2416;SDS011;1219;48.736;9.330;2022-08-11T12:27:41;1.98;;;1.30;;
2416;SDS011;1219;48.736;9.330;2022-08-11T12:30:08;3.10;;;1.50;;
2416;SDS011;1219;48.736;9.330;2022-08-11T12:32:34;1.85;;;1.33;;
2416;SDS011;1219;48.736;9.330;2022-08-11T12:35:01;1.55;;;1.45;;
2416;SDS011;1219;48.736;9.330;2022-08-11T12:37:35;1.48;;;1.38;;
2416;SDS011;1219;48.736;9.330;2022-08-11T12:40:02;1.90;;;1.30;;
2416;SDS011;1219;48.736;9.330;2022-08-11T12:42:48;2.25;;;1.27;;
2416;SDS011;1219;48.736;9.330;2022-08-11T12:45:33;2.00;;;1.25;;
2416;SDS011;1219;48.736;9.330;2022-08-11T12:48:01;1.60;;;1.50;;
2416;SDS011;1219;48.736;9.330;2022-08-11T12:50:49;1.98;;;1.20;;
2416;SDS011;1219;48.736;9.330;2022-08-11T12:53:35;1.70;;;1.40;;
2416;SDS011;1219;48.736;9.330;2022-08-11T12:56:04;1.77;;;1.50;;
2416;SDS011;1219;48.736;9.330;2022-08-11T12:58:50;2.88;;;1.40;;
2416;SDS011;1219;48.736;9.330;2022-08-11T13:01:17;2.00;;;1.30;;
2416;SDS011;1219;48.736;9.330;2022-08-11T13:04:03;1.30;;;1.20;;
2416;SDS011;1219;48.736;9.330;2022-08-11T13:06:49;2.75;;;1.45;;
2416;SDS011;1219;48.736;9.330;2022-08-11T13:09:15;1.33;;;1.23;;
2416;SDS011;1219;48.736;9.330;2022-08-11T13:11:42;2.53;;;1.40;;
2416;SDS011;1219;48.736;9.330;2022-08-11T13:14:39;1.50;;;1.40;;
2416;SDS011;1219;48.736;9.330;2022-08-11T13:17:05;1.40;;;1.30;;
2416;SDS011;1219;48.736;9.330;2022-08-11T13:19:48;2.35;;;1.30;;
2416;SDS011;1219;48.736;9.330;2022-08-11T13:22:16;2.55;;;1.17;;
2416;SDS011;1219;48.736;9.330;2022-08-11T13:24:42;1.38;;;1.27;;
2416;SDS011;1219;48.736;9.330;2022-08-11T13:27:08;1.42;;;1.20;;
2416;SDS011;1219;48.736;9.330;2022-08-11T13:29:36;1.30;;;1.20;;
2416;SDS011;1219;48.736;9.330;2022-08-11T13:32:04;1.30;;;1.20;;
2416;SDS011;1219;48.736;9.330;2022-08-11T13:34:30;1.40;;;1.30;;
2416;SDS011;1219;48.736;9.330;2022-08-11T13:36:57;1.30;;;1.20;;
2416;SDS011;1219;48.736;9.330;2022-08-11T13:39:25;2.05;;;1.30;;
2416;SDS011;1219;48.736;9.330;2022-08-11T13:41:52;1.63;;;1.30;;
2416;SDS011;1219;48.736;9.330;2022-08-11T13:44:20;1.98;;;1.45;;
2416;SDS011;1219;48.736;9.330;2022-08-11T13:46:46;2.03;;;1.40;;
2416;SDS011;1219;48.736;9.330;2022-08-11T13:49:14;3.20;;;1.20;;
2416;SDS011;1219;48.736;9.330;2022-08-11T13:51:40;1.50;;;1.20;;
2416;SDS011;1219;48.736;9.330;2022-08-11T13:54:08;1.20;;;1.10;;
2416;SDS011;1219;48.736;9.330;2022-08-11T13:56:35;1.65;;;1.40;;
2416;SDS011;1219;48.736;9.330;2022-08-11T13:59:06;1.70;;;1.27;;
2416;SDS011;1219;48.736;9.330;2022-08-11T14:01:33;1.35;;;1.25;;
2416;SDS011;1219;48.736;9.330;2022-08-11T14:04:08;2.05;;;1.20;;
2416;SDS011;1219;48.736;9.330;2022-08-11T14:06:37;1.38;;;1.20;;
2416;SDS011;1219;48.736;9.330;2022-08-11T14:09:09;1.20;;;1.20;;
2416;SDS011;1219;48.736;9.330;2022-08-11T14:11:35;1.55;;;1.45;;
2416;SDS011;1219;48.736;9.330;2022-08-11T14:14:22;1.52;;;1.42;;
2416;SDS011;1219;48.736;9.330;2022-08-11T14:16:49;1.50;;;1.40;;
2416;SDS011;1219;48.736;9.330;2022-08-11T14:19:16;1.67;;;1.40;;
2416;SDS011;1219;48.736;9.330;2022-08-11T14:21:45;1.40;;;1.30;;
2416;SDS011;1219;48.736;9.330;2022-08-11T14:24:31;1.50;;;1.40;;
2416;SDS011;1219;48.736;9.330;2022-08-11T14:26:57;1.40;;;1.30;;
2416;SDS011;1219;48.736;9.330;2022-08-11T14:29:24;2.80;;;1.30;;
2416;SDS011;1219;48.736;9.330;2022-08-11T14:31:52;2.25;;;1.23;;
2416;SDS011;1219;48.736;9.330;2022-08-11T14:34:20;1.20;;;1.10;;
2416;SDS011;1219;48.736;9.330;2022-08-11T14:36:48;1.30;;;1.20;;
2416;SDS011;1219;48.736;9.330;2022-08-11T14:39:16;1.95;;;1.20;;
2416;SDS011;1219;48.736;9.330;2022-08-11T14:41:44;2.05;;;1.40;;
2416;SDS011;1219;48.736;9.330;2022-08-11T14:44:30;1.60;;;1.25;;
2416;SDS011;1219;48.736;9.330;2022-08-11T14:47:16;1.40;;;1.30;;
2416;SDS011;1219;48.736;9.330;2022-08-11T14:49:42;1.25;;;1.25;;
2416;SDS011;1219;48.736;9.330;2022-08-11T14:52:10;2.28;;;1.30;;
2416;SDS011;1219;48.736;9.330;2022-08-11T14:54:39;1.42;;;1.33;;
2416;SDS011;1219;48.736;9.330;2022-08-11T14:57:25;1.55;;;1.20;;
2416;SDS011;1219;48.736;9.330;2022-08-11T14:59:52;1.45;;;1.20;;
2416;SDS011;1219;48.736;9.330;2022-08-11T15:02:19;1.48;;;1.30;;
2416;SDS011;1219;48.736;9.330;2022-08-11T15:05:04;1.45;;;1.35;;
2416;SDS011;1219;48.736;9.330;2022-08-11T15:07:31;2.22;;;1.52;;
2416;SDS011;1219;48.736;9.330;2022-08-11T15:09:58;2.38;;;1.35;;
2416;SDS011;1219;48.736;9.330;2022-08-11T15:12:24;1.50;;;1.40;;
2416;SDS011;1219;48.736;9.330;2022-08-11T15:14:50;1.77;;;1.67;;
2416;SDS011;1219;48.736;9.330;2022-08-11T15:17:37;1.70;;;1.40;;
2416;SDS011;1219;48.736;9.330;2022-08-11T15:20:05;3.35;;;1.30;;
2416;SDS011;1219;48.736;9.330;2022-08-11T15:22:50;1.55;;;1.45;;
2416;SDS011;1219;48.736;9.330;2022-08-11T15:25:35;1.83;;;1.30;;
2416;SDS011;1219;48.736;9.330;2022-08-11T15:28:02;4.18;;;1.50;;
2416;SDS011;1219;48.736;9.330;2022-08-11T15:30:50;1.65;;;1.50;;
2416;SDS011;1219;48.736;9.330;2022-08-11T15:33:36;1.67;;;1.58;;
2416;SDS011;1219;48.736;9.330;2022-08-11T15:36:22;3.33;;;1.77;;
2416;SDS011;1219;48.736;9.330;2022-08-11T15:39:11;1.63;;;1.52;;
2416;SDS011;1219;48.736;9.330;2022-08-11T15:41:44;4.05;;;1.40;;
2416;SDS011;1219;48.736;9.330;2022-08-11T15:44:32;1.60;;;1.50;;
2416;SDS011;1219;48.736;9.330;2022-08-11T15:47:17;1.50;;;1.40;;
2416;SDS011;1219;48.736;9.330;2022-08-11T15:49:49;1.50;;;1.40;;
2416;SDS011;1219;48.736;9.330;2022-08-11T15:52:17;2.30;;;1.50;;
2416;SDS011;1219;48.736;9.330;2022-08-11T15:54:45;3.00;;;1.70;;
2416;SDS011;1219;48.736;9.330;2022-08-11T15:57:11;1.77;;;1.60;;
2416;SDS011;1219;48.736;9.330;2022-08-11T16:00:04;1.85;;;1.58;;
2416;SDS011;1219;48.736;9.330;2022-08-11T16:02:49;4.82;;;1.70;;
2416;SDS011;1219;48.736;9.330;2022-08-11T16:05:34;1.63;;;1.40;;
2416;SDS011;1219;48.736;9.330;2022-08-11T16:08:00;1.38;;;1.27;;
2416;SDS011;1219;48.736;9.330;2022-08-11T16:10:27;3.83;;;1.50;;
2416;SDS011;1219;48.736;9.330;2022-08-11T16:12:59;1.75;;;1.40;;
2416;SDS011;1219;48.736;9.330;2022-08-11T16:15:31;6.20;;;1.40;;
2416;SDS011;1219;48.736;9.330;2022-08-11T16:18:21;2.65;;;1.60;;
2416;SDS011;1219;48.736;9.330;2022-08-11T16:20:50;3.10;;;1.40;;
2416;SDS011;1219;48.736;9.330;2022-08-11T16:23:19;5.28;;;1.90;;
2416;SDS011;1219;48.736;9.330;2022-08-11T16:25:45;5.85;;;1.55;;
2416;SDS011;1219;48.736;9.330;2022-08-11T16:28:12;1.60;;;1.50;;
2416;SDS011;1219;48.736;9.330;2022-08-11T16:30:40;1.80;;;1.67;;
2416;SDS011;1219;48.736;9.330;2022-08-11T16:33:08;2.20;;;1.90;;
2416;SDS011;1219;48.736;9.330;2022-08-11T16:35:35;1.73;;;1.43;;
2416;SDS011;1219;48.736;9.330;2022-08-11T16:38:22;2.63;;;2.43;;
2416;SDS011;1219;48.736;9.330;2022-08-11T16:41:01;1.80;;;1.70;;
2416;SDS011;1219;48.736;9.330;2022-08-11T16:43:30;5.07;;;1.77;;
2416;SDS011;1219;48.736;9.330;2022-08-11T16:46:19;2.00;;;1.90;;
2416;SDS011;1219;48.736;9.330;2022-08-11T16:49:27;3.73;;;1.77;;
2416;SDS011;1219;48.736;9.330;2022-08-11T16:51:51;2.00;;;1.80;;
2416;SDS011;1219;48.736;9.330;2022-08-11T16:54:17;3.23;;;1.90;;
2416;SDS011;1219;48.736;9.330;2022-08-11T16:56:44;3.07;;;2.10;;
2416;SDS011;1219;48.736;9.330;2022-08-11T17:02:19;2.93;;;1.70;;
2416;SDS011;1219;48.736;9.330;2022-08-11T17:04:42;3.77;;;1.93;;
2416;SDS011;1219;48.736;9.330;2022-08-11T17:07:30;2.40;;;2.20;;
2416;SDS011;1219;48.736;9.330;2022-08-11T17:10:19;2.13;;;2.03;;
2416;SDS011;1219;48.736;9.330;2022-08-11T17:13:05;3.13;;;2.03;;
2416;SDS011;1219;48.736;9.330;2022-08-11T17:15:34;3.50;;;2.00;;
2416;SDS011;1219;48.736;9.330;2022-08-11T17:18:19;4.20;;;2.20;;
2416;SDS011;1219;48.736;9.330;2022-08-11T17:21:08;2.30;;;1.70;;
2416;SDS011;1219;48.736;9.330;2022-08-11T17:23:37;2.70;;;2.00;;
2416;SDS011;1219;48.736;9.330;2022-08-11T17:26:10;2.50;;;2.20;;
2416;SDS011;1219;48.736;9.330;2022-08-11T17:28:37;2.33;;;2.00;;
2416;SDS011;1219;48.736;9.330;2022-08-11T17:31:05;2.03;;;1.93;;
2416;SDS011;1219;48.736;9.330;2022-08-11T17:33:51;2.40;;;1.83;;
2416;SDS011;1219;48.736;9.330;2022-08-11T17:36:37;2.30;;;2.03;;
2416;SDS011;1219;48.736;9.330;2022-08-11T17:39:04;2.97;;;2.00;;
2416;SDS011;1219;48.736;9.330;2022-08-11T17:41:31;2.23;;;2.03;;
2416;SDS011;1219;48.736;9.330;2022-08-11T17:44:19;2.30;;;1.90;;
2416;SDS011;1219;48.736;9.330;2022-08-11T17:47:04;2.40;;;2.00;;
2416;SDS011;1219;48.736;9.330;2022-08-11T17:49:49;2.40;;;2.20;;
2416;SDS011;1219;48.736;9.330;2022-08-11T17:52:15;3.40;;;2.20;;
2416;SDS011;1219;48.736;9.330;2022-08-11T17:55:01;3.00;;;1.93;;
2416;SDS011;1219;48.736;9.330;2022-08-11T17:57:46;1.93;;;1.83;;
2416;SDS011;1219;48.736;9.330;2022-08-11T18:00:31;2.83;;;2.37;;
2416;SDS011;1219;48.736;9.330;2022-08-11T18:02:57;3.93;;;2.10;;
2416;SDS011;1219;48.736;9.330;2022-08-11T18:05:43;2.03;;;1.93;;
2416;SDS011;1219;48.736;9.330;2022-08-11T18:08:10;2.20;;;2.00;;
2416;SDS011;1219;48.736;9.330;2022-08-11T18:10:56;3.40;;;2.03;;
2416;SDS011;1219;48.736;9.330;2022-08-11T18:13:42;2.80;;;2.20;;
2416;SDS011;1219;48.736;9.330;2022-08-11T18:16:27;2.40;;;2.10;;
2416;SDS011;1219;48.736;9.330;2022-08-11T18:19:12;2.50;;;2.30;;
2416;SDS011;1219;48.736;9.330;2022-08-11T18:22:08;2.73;;;2.20;;
2416;SDS011;1219;48.736;9.330;2022-08-11T18:24:55;2.03;;;1.90;;
2416;SDS011;1219;48.736;9.330;2022-08-11T18:27:42;2.30;;;2.10;;
2416;SDS011;1219;48.736;9.330;2022-08-11T18:30:27;2.10;;;2.00;;
2416;SDS011;1219;48.736;9.330;2022-08-11T18:33:14;2.83;;;2.40;;